Aviation Digital Data Service (ADDS)

Output produced by METARs form (0052 UTC 22 September 2017)
found at http://www.aviationweather.gov/adds/metars/
 
TAF SLCO 212200Z 2200/2224 00000KT 3000 FU NSC TX35/2220Z TN22/2210Z 
     BECMG 2214/2218 29008KT 5000 FU
       
TAF SLCB 212200Z 2200/2224 14010KT 9999 FEW033 TX29/2219Z TN10/2211Z 
     BECMG 2202/2204 00000KT FEW030 SCT070 
     TEMPO 2211/2214 3000 FU 
     BECMG 2216/2218 35010KT 9999 NSW FEW033
       
TAF SLLP 212200Z 2200/2224 07006KT 9999 FEW015 FEW017CB TX17/2220Z TN02/2210Z 
     BECMG 2203/2205 3000E VCFG FEW002 SCT013 BKN070 
     PROB30 
     TEMPO 2209/2212 8000 RA 
     BECMG 2213/2215 13008KT 9999 NSW SCT015 FEW017CB SCT070 
     TEMPO 2218/2222 8000 VCTSSH
       
TAF SLPS 212200Z 2200/2224 00000KT 3000 FU SCT070 TX38/2219Z TN23/2210Z 
     TEMPO 2209/2212 20006KT SCT080 
     BECMG 2218/2221 00000KT 5000 FU SCT023
       
TAF SLET 212200Z 2200/2224 33005KT 3000 FU NSC TX36/2220Z TN23/2211Z 
     BECMG 2206/2210 18010KT 5000 FU SCT023 SCT070 
     BECMG 2218/2221 36006KT SCT080
       
TAF SLVR 212200Z 2200/2224 33005KT 3000 FU NSC TX36/2220Z TN23/2211Z 
     BECMG 2206/2210 18010KT 5000 FU SCT023 SCT070 
     BECMG 2218/2221 36006KT SCT080
       
TAF SLTJ 212200Z 2200/2224 36010KT 9999 SCT027 BKN070 TX26/2219Z TN12/2211Z 
     BECMG 2203/2205 00000KT 
     BECMG 2214/2216 14015KT SCT033 BKN070
       
TAF SLTR 212200Z 2200/2224 00000KT 3000 FU NSC TX34/2220Z TN21/2210Z 
     BECMG 2213/2217 30007KT 5000 FU